createdAt,value
2023-11-15T00:00:19.384Z,74.60
2023-11-15T00:02:47.722Z,75.00
2023-11-15T00:05:15.844Z,75.20
2023-11-15T00:07:45.225Z,75.20
2023-11-15T00:10:14.637Z,75.40
2023-11-15T00:12:43.268Z,74.90
2023-11-15T00:15:15.513Z,74.50
2023-11-15T00:17:43.823Z,74.30
2023-11-15T00:20:14.504Z,74.30
2023-11-15T00:22:43.054Z,73.80
2023-11-15T00:25:11.245Z,72.80
2023-11-15T00:27:39.489Z,71.50
2023-11-15T00:30:11.839Z,71.10
2023-11-15T00:32:41.463Z,71.30
2023-11-15T00:35:13.649Z,71.00
2023-11-15T00:37:43.339Z,71.10
2023-11-15T00:40:14.734Z,70.70
2023-11-15T00:42:43.033Z,70.70
2023-11-15T00:45:13.328Z,70.30
2023-11-15T00:47:43.117Z,70.70
2023-11-15T00:50:11.708Z,70.60
2023-11-15T00:52:39.957Z,70.70
2023-11-15T00:55:09.577Z,70.90
2023-11-15T00:57:37.646Z,71.50
2023-11-15T01:00:23.005Z,72.00
2023-11-15T01:02:55.753Z,72.50
2023-11-15T01:05:24.218Z,72.60
2023-11-15T01:07:52.325Z,72.70
2023-11-15T01:10:21.800Z,72.50
2023-11-15T01:12:50.076Z,71.50
2023-11-15T01:15:20.040Z,70.10
2023-11-15T01:17:48.289Z,70.60
2023-11-15T01:20:18.183Z,70.30
2023-11-15T01:22:46.717Z,70.70
2023-11-15T01:25:15.617Z,71.10
2023-11-15T01:27:43.922Z,70.70
2023-11-15T01:30:13.216Z,70.00
2023-11-15T01:32:41.387Z,70.30
2023-11-15T01:35:10.340Z,70.40
2023-11-15T01:37:39.774Z,70.50
2023-11-15T01:40:12.486Z,70.20
2023-11-15T01:42:41.756Z,68.80
2023-11-15T01:45:11.042Z,68.00
2023-11-15T01:47:39.719Z,67.90
2023-11-15T01:50:11.705Z,67.80
2023-11-15T01:52:43.038Z,67.90
2023-11-15T01:55:15.118Z,67.90
2023-11-15T01:57:43.556Z,68.30
2023-11-15T02:00:13.561Z,69.20
2023-11-15T02:02:43.217Z,68.70
2023-11-15T02:05:11.967Z,68.40
2023-11-15T02:07:42.977Z,68.70
2023-11-15T02:10:13.484Z,68.60
2023-11-15T02:12:41.578Z,68.50
2023-11-15T02:15:10.560Z,68.60
2023-11-15T02:17:38.706Z,68.70
2023-11-15T02:20:10.040Z,68.40
2023-11-15T02:22:47.036Z,68.40
2023-11-15T02:25:17.579Z,68.80
2023-11-15T02:27:46.279Z,69.20
2023-11-15T02:30:15.744Z,68.80
2023-11-15T02:32:45.103Z,68.30
2023-11-15T02:35:13.211Z,68.20
2023-11-15T02:37:41.661Z,68.40
2023-11-15T02:40:11.955Z,68.80
2023-11-15T02:42:41.567Z,69.40
2023-11-15T02:45:11.295Z,68.80
2023-11-15T02:47:39.654Z,68.10
2023-11-15T02:50:09.234Z,68.60
2023-11-15T02:52:37.887Z,68.70
2023-11-15T02:55:06.985Z,68.50
2023-11-15T02:57:35.066Z,68.70
2023-11-15T03:00:06.832Z,68.60
2023-11-15T03:02:35.395Z,68.40
2023-11-15T03:05:03.788Z,68.50
2023-11-15T03:07:31.834Z,68.70
2023-11-15T03:10:00.167Z,68.50
2023-11-15T03:12:28.342Z,68.00
2023-11-15T03:14:57.222Z,68.20
2023-11-15T03:17:27.173Z,68.10
2023-11-15T03:19:56.192Z,67.90
2023-11-15T03:22:24.376Z,68.80
2023-11-15T03:24:52.522Z,68.60
2023-11-15T03:27:20.647Z,68.40
2023-11-15T03:29:48.826Z,68.40
2023-11-15T03:32:16.895Z,68.30
2023-11-15T03:34:46.397Z,68.40
2023-11-15T03:37:15.708Z,68.90
2023-11-15T03:39:43.786Z,68.50
2023-11-15T03:42:13.376Z,68.60
2023-11-15T03:44:41.534Z,68.70
2023-11-15T03:47:09.754Z,68.80
2023-11-15T03:49:37.853Z,68.70
2023-11-15T03:52:08.636Z,68.90
2023-11-15T03:54:37.361Z,69.20
2023-11-15T03:57:08.935Z,68.60
2023-11-15T03:59:37.340Z,68.80
2023-11-15T04:02:05.471Z,68.80
2023-11-15T04:04:34.721Z,68.90
2023-11-15T04:07:04.180Z,68.80
2023-11-15T04:09:34.875Z,69.20
2023-11-15T04:12:03.526Z,69.00
2023-11-15T04:14:31.608Z,68.50
2023-11-15T04:17:01.323Z,68.60
2023-11-15T04:19:29.337Z,68.90
2023-11-15T04:22:06.038Z,69.30
2023-11-15T04:24:41.731Z,69.60
2023-11-15T04:27:09.914Z,69.90
2023-11-15T04:29:39.090Z,70.30
2023-11-15T04:32:07.804Z,70.30
2023-11-15T04:34:36.035Z,70.70
2023-11-15T04:37:05.058Z,70.70
2023-11-15T04:39:33.326Z,70.50
2023-11-15T04:42:03.105Z,70.80
2023-11-15T04:44:31.933Z,71.90
2023-11-15T04:47:00.097Z,72.70
2023-11-15T04:49:28.076Z,73.40
2023-11-15T04:51:56.094Z,74.20
2023-11-15T04:54:24.112Z,74.50
2023-11-15T04:56:52.476Z,75.00
2023-11-15T04:59:22.188Z,75.50
2023-11-15T05:01:50.257Z,76.60
2023-11-15T05:04:18.641Z,76.50
2023-11-15T05:06:47.874Z,76.70
2023-11-15T05:09:15.868Z,77.30
2023-11-15T05:11:43.867Z,77.60
2023-11-15T05:14:11.881Z,77.80
2023-11-15T05:16:41.459Z,78.70
2023-11-15T05:19:09.493Z,79.30
2023-11-15T05:21:38.429Z,79.80
2023-11-15T05:24:07.695Z,80.30
2023-11-15T05:26:35.780Z,81.10
2023-11-15T05:29:03.821Z,81.20
2023-11-15T05:31:31.770Z,81.40
2023-11-15T05:34:01.046Z,81.20
2023-11-15T05:36:29.253Z,81.00
2023-11-15T05:38:57.514Z,81.00
2023-11-15T05:41:28.550Z,81.30
2023-11-15T05:43:57.949Z,81.20
2023-11-15T05:46:26.771Z,81.10
2023-11-15T05:48:55.036Z,80.80
2023-11-15T05:51:24.789Z,80.60
2023-11-15T05:53:52.760Z,80.80
2023-11-15T05:56:23.053Z,81.50
2023-11-15T05:58:51.411Z,82.40
2023-11-15T06:01:19.724Z,82.50
2023-11-15T06:03:49.564Z,82.50
2023-11-15T06:06:17.618Z,82.40
2023-11-15T06:08:47.053Z,82.60
2023-11-15T06:11:15.144Z,82.90
2023-11-15T06:13:43.861Z,83.30
2023-11-15T06:16:11.817Z,83.60
2023-11-15T06:18:40.680Z,84.30
2023-11-15T06:21:08.870Z,84.30
2023-11-15T06:23:36.916Z,84.70
2023-11-15T06:26:07.703Z,85.00
2023-11-15T06:28:36.669Z,85.40
2023-11-15T06:31:05.802Z,85.60
2023-11-15T06:33:34.060Z,85.40
2023-11-15T06:36:03.578Z,85.10
2023-11-15T06:38:31.959Z,85.30
2023-11-15T06:41:01.529Z,85.30
2023-11-15T06:43:31.033Z,85.40
2023-11-15T06:45:59.362Z,85.20
2023-11-15T06:48:27.935Z,85.00
2023-11-15T06:50:56.486Z,85.00
2023-11-15T06:53:24.737Z,85.10
2023-11-15T06:55:54.003Z,85.00
2023-11-15T06:58:22.455Z,84.80
2023-11-15T07:00:51.914Z,84.70
2023-11-15T07:03:20.154Z,85.00
2023-11-15T07:05:50.355Z,85.10
2023-11-15T07:08:18.545Z,85.00
2023-11-15T07:10:47.263Z,84.90
2023-11-15T07:13:15.473Z,84.70
2023-11-15T07:15:44.882Z,84.60
2023-11-15T07:18:15.099Z,84.30
2023-11-15T07:20:43.495Z,84.40
2023-11-15T07:23:13.187Z,84.40
2023-11-15T07:25:41.316Z,84.50
2023-11-15T07:28:11.081Z,84.40
2023-11-15T07:30:39.370Z,84.40
2023-11-15T07:33:07.511Z,84.10
2023-11-15T07:35:37.997Z,83.90
2023-11-15T07:38:09.183Z,83.90
2023-11-15T07:40:38.767Z,84.10
2023-11-15T07:43:07.925Z,84.00
2023-11-15T07:45:36.952Z,83.80
2023-11-15T07:48:06.306Z,83.70
2023-11-15T07:50:36.992Z,83.50
2023-11-15T07:53:05.496Z,83.70
2023-11-15T07:55:36.800Z,83.90
2023-11-15T07:58:05.556Z,84.00
2023-11-15T08:00:36.614Z,84.20
2023-11-15T08:03:05.776Z,84.50
2023-11-15T08:05:34.202Z,84.70
2023-11-15T08:08:04.943Z,85.10
2023-11-15T08:10:33.910Z,85.50
2023-11-15T08:13:02.090Z,86.10
2023-11-15T08:15:30.118Z,86.10
2023-11-15T08:17:58.336Z,86.30
2023-11-15T08:20:26.510Z,86.50
2023-11-15T08:22:54.509Z,86.60
2023-11-15T08:25:25.900Z,86.60
2023-11-15T08:27:54.035Z,86.60
2023-11-15T08:30:22.527Z,86.50
2023-11-15T08:32:50.716Z,86.70
2023-11-15T08:35:19.028Z,86.70
2023-11-15T08:37:47.120Z,87.00
2023-11-15T08:40:26.113Z,86.90
2023-11-15T08:42:58.654Z,86.90
2023-11-15T08:45:27.014Z,87.10
2023-11-15T08:47:58.610Z,87.00
2023-11-15T08:50:28.292Z,86.70
2023-11-15T08:52:57.805Z,86.40
2023-11-15T08:55:26.013Z,86.30
2023-11-15T08:57:54.354Z,86.10
2023-11-15T09:00:25.584Z,85.90
2023-11-15T09:02:53.912Z,85.10
2023-11-15T09:05:24.379Z,85.20
2023-11-15T09:07:52.571Z,85.20
2023-11-15T09:10:23.935Z,85.50
2023-11-15T09:12:53.741Z,85.00
2023-11-15T09:15:25.480Z,85.70
2023-11-15T09:17:53.636Z,85.40
2023-11-15T09:20:27.891Z,86.20
2023-11-15T09:22:56.681Z,86.30
2023-11-15T09:25:26.389Z,86.40
2023-11-15T09:27:56.695Z,86.40
2023-11-15T09:30:27.246Z,86.10
2023-11-15T09:32:56.181Z,85.70
2023-11-15T09:35:29.275Z,85.30
2023-11-15T09:37:58.793Z,85.60
2023-11-15T09:40:28.658Z,85.20
2023-11-15T09:43:00.110Z,85.10
2023-11-15T09:45:33.541Z,85.10
2023-11-15T09:48:03.583Z,85.00
2023-11-15T09:50:35.041Z,85.10
2023-11-15T09:53:07.046Z,84.90
2023-11-15T09:55:36.257Z,84.00
2023-11-15T09:58:05.074Z,83.80
2023-11-15T10:00:34.636Z,83.90
2023-11-15T10:03:02.991Z,83.40
2023-11-15T10:05:33.627Z,82.50
2023-11-15T10:08:12.309Z,82.10
2023-11-15T10:10:43.182Z,81.10
2023-11-15T10:13:15.112Z,79.10
2023-11-15T10:15:46.780Z,79.20
2023-11-15T10:18:16.594Z,79.20
2023-11-15T10:20:45.204Z,78.90
2023-11-15T10:23:14.562Z,78.30
2023-11-15T10:25:49.167Z,77.20
2023-11-15T10:28:18.019Z,76.40
2023-11-15T10:30:50.216Z,75.80
2023-11-15T10:33:19.708Z,75.80
2023-11-15T10:35:48.890Z,75.30
2023-11-15T10:38:21.047Z,76.00
2023-11-15T10:40:53.570Z,77.30
2023-11-15T10:43:21.970Z,77.90
2023-11-15T10:45:57.155Z,78.00
2023-11-15T10:48:27.912Z,78.70
2023-11-15T10:50:59.056Z,79.60
2023-11-15T10:53:29.346Z,80.30
2023-11-15T10:55:59.877Z,81.20
2023-11-15T10:58:28.889Z,81.50
2023-11-15T11:00:59.483Z,81.90
2023-11-15T11:03:29.590Z,82.10
2023-11-15T11:06:05.620Z,82.70
2023-11-15T11:08:42.677Z,82.00
2023-11-15T11:11:22.305Z,82.10
2023-11-15T11:14:18.626Z,81.80
2023-11-15T11:16:48.592Z,80.80
2023-11-15T11:19:22.904Z,80.40
2023-11-15T11:22:10.362Z,78.70
2023-11-15T11:24:43.566Z,78.50
2023-11-15T11:27:32.039Z,77.50
2023-11-15T11:30:22.416Z,75.30
2023-11-15T11:33:11.026Z,74.90
2023-11-15T11:35:41.952Z,74.00
2023-11-15T11:38:15.580Z,72.10
2023-11-15T11:40:46.994Z,70.70
2023-11-15T11:43:16.981Z,71.00
2023-11-15T11:45:46.642Z,71.50
2023-11-15T11:48:20.762Z,71.00
2023-11-15T11:50:57.582Z,71.60
2023-11-15T11:53:26.154Z,71.80
2023-11-15T11:55:56.094Z,72.00
2023-11-15T11:58:27.193Z,71.50
2023-11-15T12:01:03.118Z,72.10
2023-11-15T12:03:33.133Z,71.30
2023-11-15T12:06:09.819Z,70.20
2023-11-15T12:08:39.919Z,70.30
2023-11-15T12:11:09.147Z,69.30
2023-11-15T12:13:44.117Z,70.70
2023-11-15T12:16:20.353Z,68.60
2023-11-15T12:19:13.791Z,66.90
2023-11-15T12:21:46.760Z,67.80
2023-11-15T12:24:18.648Z,67.30
2023-11-15T12:26:48.346Z,67.80
2023-11-15T12:29:21.625Z,67.70
2023-11-15T12:31:52.016Z,66.20
2023-11-15T12:34:22.532Z,66.60
2023-11-15T12:36:52.636Z,66.60
2023-11-15T12:39:23.574Z,66.20
2023-11-15T12:41:53.731Z,66.10
2023-11-15T12:44:22.713Z,66.80
2023-11-15T12:46:55.414Z,66.90
2023-11-15T12:49:28.770Z,66.60
2023-11-15T12:51:57.013Z,66.70
2023-11-15T12:54:24.973Z,66.70
2023-11-15T12:57:08.925Z,65.70
2023-11-15T12:59:38.878Z,67.10
2023-11-15T13:02:07.803Z,66.20
2023-11-15T13:04:52.048Z,64.90
2023-11-15T13:07:20.275Z,65.60
2023-11-15T13:09:49.370Z,65.20
2023-11-15T13:12:25.428Z,64.30
2023-11-15T13:14:54.247Z,63.70
2023-11-15T13:17:22.427Z,63.90
2023-11-15T13:19:51.808Z,64.80
2023-11-15T13:22:19.841Z,63.30
2023-11-15T13:24:50.897Z,62.60
2023-11-15T13:27:21.697Z,62.90
2023-11-15T13:29:51.446Z,63.20
2023-11-15T13:32:20.537Z,62.30
2023-11-15T13:34:51.601Z,63.10
2023-11-15T13:37:20.990Z,62.60
2023-11-15T13:39:49.188Z,62.30
2023-11-15T13:42:17.248Z,61.40
2023-11-15T13:44:46.092Z,60.80
2023-11-15T13:47:15.162Z,60.10
2023-11-15T13:49:47.567Z,61.00
2023-11-15T13:52:17.076Z,60.70
2023-11-15T13:54:47.554Z,60.80
2023-11-15T13:57:18.718Z,61.10
2023-11-15T13:59:46.954Z,59.70
2023-11-15T14:02:15.086Z,59.40
2023-11-15T14:04:43.671Z,59.40
2023-11-15T14:07:12.145Z,60.50
2023-11-15T14:09:41.048Z,60.60
2023-11-15T14:12:12.307Z,60.70
2023-11-15T14:14:41.130Z,60.60
2023-11-15T14:17:11.192Z,59.50
2023-11-15T14:19:41.010Z,57.80
2023-11-15T14:22:09.036Z,58.70
2023-11-15T14:24:37.339Z,58.40
2023-11-15T14:27:06.282Z,58.10
2023-11-15T14:29:36.833Z,57.20
2023-11-15T14:32:08.530Z,54.90
2023-11-15T14:34:36.883Z,55.80
2023-11-15T14:37:05.128Z,56.60
2023-11-15T14:39:33.164Z,55.50
2023-11-15T14:42:01.352Z,56.20
2023-11-15T14:44:29.856Z,56.90
2023-11-15T14:47:00.338Z,57.30
2023-11-15T14:49:29.398Z,57.40
2023-11-15T14:52:11.896Z,56.80
2023-11-15T14:54:46.873Z,57.20
2023-11-15T14:57:15.624Z,56.90
2023-11-15T14:59:44.807Z,57.80
2023-11-15T15:02:14.666Z,57.20
2023-11-15T15:04:45.736Z,57.90
2023-11-15T15:07:15.756Z,56.40
2023-11-15T15:09:44.125Z,57.90
2023-11-15T15:12:12.577Z,58.70
2023-11-15T15:14:40.807Z,58.70
2023-11-15T15:17:18.145Z,57.80
2023-11-15T15:19:52.882Z,58.00
2023-11-15T15:22:20.864Z,57.60
2023-11-15T15:24:50.191Z,57.00
2023-11-15T15:27:18.188Z,57.90
2023-11-15T15:29:49.865Z,57.30
2023-11-15T15:32:18.034Z,57.00
2023-11-15T15:34:45.987Z,56.20
2023-11-15T15:37:16.390Z,56.80
2023-11-15T15:39:44.556Z,55.10
2023-11-15T15:42:13.018Z,56.20
2023-11-15T15:44:41.151Z,56.20
2023-11-15T15:47:09.395Z,55.20
2023-11-15T15:49:42.578Z,56.00
2023-11-15T15:52:12.784Z,56.30
2023-11-15T15:54:42.439Z,56.10
2023-11-15T15:57:10.610Z,54.60
2023-11-15T15:59:39.477Z,55.20
2023-11-15T16:02:08.029Z,55.40
2023-11-15T16:04:37.472Z,55.70
2023-11-15T16:07:06.756Z,56.80
2023-11-15T16:09:35.003Z,56.80
2023-11-15T16:12:04.895Z,56.60
2023-11-15T16:14:32.950Z,57.70
2023-11-15T16:17:00.981Z,57.50
2023-11-15T16:19:29.182Z,57.90
2023-11-15T16:21:57.516Z,57.90
2023-11-15T16:24:25.753Z,57.10
2023-11-15T16:26:54.884Z,57.50
2023-11-15T16:29:24.316Z,56.10
2023-11-15T16:31:52.309Z,56.60
2023-11-15T16:34:20.281Z,56.80
2023-11-15T16:36:48.414Z,56.70
2023-11-15T16:39:21.608Z,56.40
2023-11-15T16:41:51.662Z,56.80
2023-11-15T16:44:20.792Z,57.70
2023-11-15T16:46:50.862Z,56.60
2023-11-15T16:49:19.649Z,57.00
2023-11-15T16:51:47.763Z,56.40
2023-11-15T16:54:16.361Z,56.20
2023-11-15T16:56:45.847Z,56.00
2023-11-15T16:59:14.693Z,56.60
2023-11-15T17:01:43.054Z,56.70
2023-11-15T17:04:12.570Z,57.30
2023-11-15T17:06:41.489Z,57.70
2023-11-15T17:09:09.488Z,57.80
2023-11-15T17:11:37.579Z,57.80
2023-11-15T17:14:06.601Z,56.60
2023-11-15T17:16:34.919Z,57.10
2023-11-15T17:19:03.836Z,57.30
2023-11-15T17:21:33.263Z,57.10
2023-11-15T17:24:02.485Z,56.60
2023-11-15T17:26:32.216Z,57.00
2023-11-15T17:29:00.569Z,57.20
2023-11-15T17:31:29.543Z,56.50
2023-11-15T17:33:58.093Z,57.00
2023-11-15T17:36:29.076Z,58.00
2023-11-15T17:38:59.815Z,57.90
2023-11-15T17:41:28.051Z,58.00
2023-11-15T17:43:56.015Z,57.40
2023-11-15T17:46:26.565Z,57.50
2023-11-15T17:48:56.488Z,58.00
2023-11-15T17:51:24.460Z,58.40
2023-11-15T17:53:54.282Z,58.60
2023-11-15T17:56:24.642Z,58.70
2023-11-15T17:58:52.998Z,58.90
2023-11-15T18:01:21.764Z,59.20
2023-11-15T18:03:50.058Z,60.00
2023-11-15T18:06:23.655Z,60.20
2023-11-15T18:08:53.028Z,60.60
2023-11-15T18:11:21.147Z,61.00
2023-11-15T18:13:50.782Z,61.30
2023-11-15T18:16:19.006Z,61.60
2023-11-15T18:18:47.530Z,62.00
2023-11-15T18:21:15.595Z,62.40
2023-11-15T18:23:44.829Z,62.90
2023-11-15T18:26:12.804Z,62.60
2023-11-15T18:28:41.764Z,62.80
2023-11-15T18:31:11.764Z,62.70
2023-11-15T18:33:40.322Z,62.90
2023-11-15T18:36:11.174Z,63.10
2023-11-15T18:38:40.461Z,63.00
2023-11-15T18:41:08.893Z,63.40
2023-11-15T18:43:37.790Z,63.50
2023-11-15T18:46:06.581Z,63.90
2023-11-15T18:48:35.962Z,63.80
2023-11-15T18:51:04.126Z,63.80
2023-11-15T18:53:32.434Z,63.90
2023-11-15T18:56:01.218Z,64.10
2023-11-15T18:58:29.519Z,64.20
2023-11-15T19:00:57.857Z,64.40
2023-11-15T19:03:26.881Z,64.70
2023-11-15T19:05:57.061Z,65.30
2023-11-15T19:08:25.598Z,66.00
2023-11-15T19:10:55.483Z,66.30
2023-11-15T19:13:26.009Z,66.70
2023-11-15T19:15:54.265Z,67.10
2023-11-15T19:18:22.562Z,67.40
2023-11-15T19:20:50.750Z,67.70
2023-11-15T19:23:21.725Z,68.30
2023-11-15T19:25:49.859Z,68.70
2023-11-15T19:28:17.863Z,69.00
2023-11-15T19:30:46.377Z,69.50
2023-11-15T19:33:14.652Z,70.00
2023-11-15T19:35:42.642Z,70.00
2023-11-15T19:38:10.808Z,70.10
2023-11-15T19:40:40.245Z,70.70
2023-11-15T19:43:10.531Z,71.10
2023-11-15T19:45:39.097Z,71.70
2023-11-15T19:48:07.398Z,72.00
2023-11-15T19:50:35.652Z,72.30
2023-11-15T19:53:08.051Z,72.50
2023-11-15T19:55:36.976Z,72.60
2023-11-15T19:58:06.752Z,73.00
2023-11-15T20:00:36.438Z,73.20
2023-11-15T20:03:06.051Z,73.40
2023-11-15T20:05:34.800Z,73.50
2023-11-15T20:08:02.806Z,73.50
2023-11-15T20:10:31.209Z,73.60
2023-11-15T20:12:59.365Z,73.60
2023-11-15T20:15:28.675Z,73.70
2023-11-15T20:17:56.881Z,73.80
2023-11-15T20:20:25.253Z,73.60
2023-11-15T20:22:55.094Z,73.30
2023-11-15T20:25:23.868Z,72.90
2023-11-15T20:27:51.807Z,72.50
2023-11-15T20:30:21.967Z,71.40
2023-11-15T20:32:55.468Z,71.30
2023-11-15T20:35:24.738Z,71.10
2023-11-15T20:37:52.723Z,71.00
2023-11-15T20:40:22.943Z,70.50
2023-11-15T20:42:51.328Z,70.10
2023-11-15T20:45:19.420Z,70.10
2023-11-15T20:47:47.527Z,69.60
2023-11-15T20:50:17.111Z,69.70
2023-11-15T20:52:45.071Z,69.60
2023-11-15T20:55:13.870Z,69.70
2023-11-15T20:57:41.905Z,69.40
2023-11-15T21:00:13.246Z,69.40
2023-11-15T21:02:42.013Z,69.30
2023-11-15T21:05:12.343Z,69.40
2023-11-15T21:07:42.149Z,68.40
2023-11-15T21:10:10.969Z,68.50
2023-11-15T21:12:39.689Z,68.70
2023-11-15T21:15:10.607Z,69.20
2023-11-15T21:17:38.976Z,69.00
2023-11-15T21:20:11.662Z,69.10
2023-11-15T21:22:43.074Z,68.90
2023-11-15T21:25:13.628Z,69.10
2023-11-15T21:27:42.805Z,69.00
2023-11-15T21:30:12.989Z,69.40
2023-11-15T21:32:41.666Z,69.60
2023-11-15T21:35:11.028Z,69.60
2023-11-15T21:37:44.166Z,69.80
2023-11-15T21:40:15.765Z,69.80
2023-11-15T21:42:45.796Z,70.00
2023-11-15T21:45:14.677Z,70.10
2023-11-15T21:47:44.427Z,70.30
2023-11-15T21:50:15.900Z,70.30
2023-11-15T21:52:45.480Z,70.50
2023-11-15T21:55:13.791Z,70.70
2023-11-15T21:57:42.021Z,71.00
2023-11-15T22:00:14.093Z,70.90
2023-11-15T22:02:42.236Z,71.00
2023-11-15T22:05:10.586Z,71.20
2023-11-15T22:07:39.732Z,71.70
2023-11-15T22:10:11.164Z,72.10
2023-11-15T22:12:39.353Z,72.80
2023-11-15T22:15:10.198Z,73.40
2023-11-15T22:17:39.921Z,73.40
2023-11-15T22:20:10.952Z,73.40
2023-11-15T22:22:39.112Z,73.60
2023-11-15T22:25:08.797Z,73.70
2023-11-15T22:27:37.108Z,73.70
2023-11-15T22:30:07.728Z,73.70
2023-11-15T22:32:35.995Z,73.70
2023-11-15T22:35:04.561Z,73.70
2023-11-15T22:37:33.862Z,73.70
2023-11-15T22:40:02.094Z,73.90
2023-11-15T22:42:31.453Z,74.00
2023-11-15T22:44:59.592Z,74.60
2023-11-15T22:47:27.715Z,74.80
2023-11-15T22:49:55.657Z,74.60
2023-11-15T22:52:23.758Z,74.70
2023-11-15T22:54:51.809Z,74.70
2023-11-15T22:57:21.731Z,74.80
2023-11-15T22:59:52.664Z,74.90
2023-11-15T23:02:21.696Z,75.30
2023-11-15T23:04:50.322Z,75.60
2023-11-15T23:07:21.822Z,77.10
2023-11-15T23:09:50.988Z,77.50
2023-11-15T23:12:19.146Z,77.50
2023-11-15T23:14:49.054Z,78.10
2023-11-15T23:17:18.594Z,78.00
2023-11-15T23:19:46.944Z,77.90
2023-11-15T23:22:15.593Z,78.70
2023-11-15T23:24:43.858Z,77.90
2023-11-15T23:27:12.070Z,78.00
2023-11-15T23:29:40.130Z,77.90
2023-11-15T23:32:08.687Z,77.80
2023-11-15T23:34:38.222Z,77.90
2023-11-15T23:37:06.501Z,77.90
2023-11-15T23:39:34.576Z,77.90
2023-11-15T23:42:02.705Z,78.10
2023-11-15T23:44:31.614Z,78.30
2023-11-15T23:47:00.172Z,78.20
2023-11-15T23:49:28.355Z,78.30
2023-11-15T23:51:57.617Z,77.90
2023-11-15T23:54:25.630Z,77.60
2023-11-15T23:56:56.323Z,77.20
2023-11-15T23:59:24.280Z,77.30
